Portada
METAR-TAF:

METAR-TAF

Aeroports :

Schenectady County Airport

Schenectady, Nova York, Estats Units d'Amèrica

latitud: 42-51N, longitud: 073-56W, altitud: 115 m

Observació

L'informe es va fer fa 33 minuts, a les 15:48 UTC
Vent 17 kt del Nord-Oest amb ràfegues de 23 kt
Temperatura 6°C
Humitat 93%
Pressió 1005 hPa
Visibilitat: 6.4 km
Núvols disperses a una alçada de 1100 ft
Cel ennuvolat a una alçada de 1900 ft
Cel cobert a una alçada de 4200 ft
pluja

METAR: KSCH 221548Z 31017G23KT 4SM RA SCT011 BKN019 OVC042 06/05 A2967

Hora: 11:21 (16:21 UTC)


TAF: manca

Observacions i pronòstics meteorològics de més de 4000 aeroports (METAR i TAF).

Les estacions disponibles són els punts grocs i vermells al mapa.

Posi el ratolí al punt desitjat per veure el nom de l'estació.

Feu clic per veure les observacions i els pronòstics meteorològics.

Per canviar el mapa: feu clic els botons verds amb una creu de color negre per apropar; al botó verd amb un guió per allunyar la imatge; o en les fletxes verdes per a mapes adjacents.


METAR-TAF: